Time;durP1;ratioP1;P1;durP2;ratioP2;P2;SDS_P1;SDS_P2;PMS_P1;PMS_P2;Temp;Humidity;BMP_temperature;BMP_pressure;BME280_temperature;BME280_humidity;BME280_pressure;Samples;Min_cycle;Max_cycle;Signal;HPM_P1;HPM_P2
2021/08/08 00:00:50;;;;;;;7.36;3.86;;;;;;;;;;364980;147;859588;-60
2021/08/08 00:01:51;;;;;;;6.24;3.60;;;;;;;;;;366019;146;858056;-60
2021/08/08 00:02:53;;;;;;;12.65;3.80;;;;;;;;;;362761;145;865961;-59
2021/08/08 00:03:54;;;;;;;9.19;3.55;;;;;;;;;;365997;145;859385;-59
2021/08/08 00:04:56;;;;;;;9.64;3.54;;;;;;;;;;362150;146;858695;-59
2021/08/08 00:05:57;;;;;;;8.39;3.43;;;;;;;;;;363799;145;857164;-60
2021/08/08 00:06:59;;;;;;;10.76;4.02;;;;;;;;;;365044;147;857334;-60
2021/08/08 00:08:01;;;;;;;6.42;3.46;;;;;;;;;;366373;146;866413;-59
2021/08/08 00:09:02;;;;;;;7.39;3.42;;;;;;;;;;364352;146;866493;-60
2021/08/08 00:10:05;;;;;;;5.71;3.23;;;;;;;;;;364296;146;859066;-59
2021/08/08 00:11:07;;;;;;;8.37;3.89;;;;;;;;;;366024;146;866085;-60
2021/08/08 00:12:10;;;;;;;6.20;3.49;;;;;;;;;;367177;146;858894;-59
2021/08/08 00:13:11;;;;;;;8.43;4.17;;;;;;;;;;364578;146;858956;-59
2021/08/08 00:14:13;;;;;;;8.17;3.74;;;;;;;;;;365596;146;858278;-60
2021/08/08 00:15:14;;;;;;;10.26;3.56;;;;;;;;;;366689;145;859050;-60
2021/08/08 00:16:16;;;;;;;6.03;3.20;;;;;;;;;;365514;146;859341;-59
2021/08/08 00:17:18;;;;;;;7.49;3.69;;;;;;;;;;362601;147;860083;-60
2021/08/08 00:18:20;;;;;;;11.01;3.24;;;;;;;;;;363315;146;858611;-60
2021/08/08 00:19:21;;;;;;;8.19;3.93;;;;;;;;;;363680;147;858943;-60
2021/08/08 00:20:23;;;;;;;4.57;3.29;;;;;;;;;;364541;147;864863;-60
2021/08/08 00:21:25;;;;;;;7.16;3.51;;;;;;;;;;364218;147;857167;-59
2021/08/08 00:22:26;;;;;;;6.64;3.39;;;;;;;;;;364965;147;857264;-60
2021/08/08 00:23:28;;;;;;;6.33;3.81;;;;;;;;;;364933;146;857069;-59
2021/08/08 00:24:30;;;;;;;7.52;3.43;;;;;;;;;;365259;147;858947;-59
2021/08/08 00:25:31;;;;;;;5.16;3.33;;;;;;;;;;365240;146;859417;-59
2021/08/08 00:26:34;;;;;;;7.21;3.56;;;;;;;;;;364197;145;864686;-59
2021/08/08 00:27:36;;;;;;;8.22;3.63;;;;;;;;;;363751;146;864871;-59
2021/08/08 00:28:38;;;;;;;10.46;4.25;;;;;;;;;;363658;147;857277;-60
2021/08/08 00:29:40;;;;;;;5.24;3.00;;;;;;;;;;362194;147;865004;-60
2021/08/08 00:30:42;;;;;;;9.09;3.46;;;;;;;;;;363998;147;859478;-59
2021/08/08 00:31:43;;;;;;;7.56;3.99;;;;;;;;;;362768;147;857350;-59
2021/08/08 00:32:45;;;;;;;8.51;3.69;;;;;;;;;;361163;147;866555;-59
2021/08/08 00:33:46;;;;;;;7.39;3.34;;;;;;;;;;365564;146;858239;-59
2021/08/08 00:34:48;;;;;;;6.94;3.34;;;;;;;;;;363553;146;860538;-60
2021/08/08 00:35:49;;;;;;;8.08;4.13;;;;;;;;;;366963;146;857171;-60
2021/08/08 00:36:53;;;;;;;11.18;4.05;;;;;;;;;;365840;146;858858;-59
2021/08/08 00:37:54;;;;;;;9.30;3.78;;;;;;;;;;364206;146;857106;-59
2021/08/08 00:38:56;;;;;;;10.14;4.11;;;;;;;;;;364535;146;865425;-59
2021/08/08 00:39:58;;;;;;;10.23;4.31;;;;;;;;;;364008;146;858490;-59
2021/08/08 00:41:00;;;;;;;10.84;4.08;;;;;;;;;;365229;146;860203;-59
2021/08/08 00:42:01;;;;;;;10.84;4.14;;;;;;;;;;364256;146;864988;-59
2021/08/08 00:43:03;;;;;;;8.66;3.71;;;;;;;;;;362403;146;857302;-60
2021/08/08 00:44:05;;;;;;;7.65;3.71;;;;;;;;;;362731;146;864701;-59
2021/08/08 00:45:07;;;;;;;5.91;3.97;;;;;;;;;;365061;145;857392;-59
2021/08/08 00:46:09;;;;;;;7.64;3.78;;;;;;;;;;364651;145;857762;-59
2021/08/08 00:47:11;;;;;;;5.46;3.89;;;;;;;;;;367604;145;860270;-59
2021/08/08 00:48:12;;;;;;;8.51;3.93;;;;;;;;;;364913;147;864842;-60
2021/08/08 00:49:14;;;;;;;7.44;4.01;;;;;;;;;;366365;146;857166;-60
2021/08/08 00:50:17;;;;;;;6.35;4.35;;;;;;;;;;365894;145;857176;-59
2021/08/08 00:51:19;;;;;;;6.32;4.53;;;;;;;;;;366416;145;857334;-59
2021/08/08 00:52:21;;;;;;;6.16;4.01;;;;;;;;;;365639;145;857293;-60
2021/08/08 00:53:22;;;;;;;8.68;4.51;;;;;;;;;;363491;146;858945;-59
2021/08/08 00:54:24;;;;;;;8.17;4.34;;;;;;;;;;364071;145;859042;-59
2021/08/08 00:55:25;;;;;;;6.40;4.61;;;;;;;;;;366409;145;857763;-59
2021/08/08 00:56:28;;;;;;;7.19;4.13;;;;;;;;;;366029;146;860694;-59
2021/08/08 00:57:32;;;;;;;8.95;4.31;;;;;;;;;;365011;146;858639;-59
2021/08/08 00:58:33;;;;;;;6.43;4.16;;;;;;;;;;365934;145;859010;-59
2021/08/08 00:59:35;;;;;;;9.17;4.62;;;;;;;;;;364607;146;857115;-59
2021/08/08 01:00:39;;;;;;;7.97;4.81;;;;;;;;;;364241;146;865754;-59
2021/08/08 01:01:42;;;;;;;7.99;4.96;;;;;;;;;;368314;145;859125;-61
2021/08/08 01:02:45;;;;;;;6.91;4.49;;;;;;;;;;365246;147;858552;-59
2021/08/08 01:03:47;;;;;;;11.19;4.43;;;;;;;;;;363840;147;864898;-59
2021/08/08 01:04:53;;;;;;;9.32;4.06;;;;;;;;;;362466;146;857992;-59
2021/08/08 01:06:03;;;;;;;6.96;4.33;;;;;;;;;;366143;145;866575;-59
2021/08/08 01:07:06;;;;;;;7.65;4.66;;;;;;;;;;364584;147;858958;-59
2021/08/08 01:08:08;;;;;;;9.04;4.06;;;;;;;;;;363085;146;857227;-59
2021/08/08 01:09:11;;;;;;;7.47;4.58;;;;;;;;;;365836;145;858649;-59
2021/08/08 01:10:13;;;;;;;8.45;4.49;;;;;;;;;;367510;145;861034;-57
2021/08/08 01:11:14;;;;;;;7.85;4.53;;;;;;;;;;365295;146;864759;-59
2021/08/08 01:12:16;;;;;;;6.04;4.20;;;;;;;;;;363947;147;857203;-59
2021/08/08 01:13:17;;;;;;;10.21;4.39;;;;;;;;;;363871;146;864790;-60
2021/08/08 01:14:19;;;;;;;9.00;4.57;;;;;;;;;;366705;145;857179;-60
2021/08/08 01:15:20;;;;;;;9.12;4.60;;;;;;;;;;364342;145;866535;-59
2021/08/08 01:16:22;;;;;;;6.11;4.39;;;;;;;;;;364928;145;857263;-59
2021/08/08 01:17:24;;;;;;;7.37;4.09;;;;;;;;;;366149;145;858944;-59
2021/08/08 01:18:26;;;;;;;8.57;4.44;;;;;;;;;;363472;146;860146;-59
2021/08/08 01:19:27;;;;;;;6.52;4.34;;;;;;;;;;365149;146;864691;-60
2021/08/08 01:20:29;;;;;;;6.97;4.13;;;;;;;;;;365295;145;857140;-59
2021/08/08 01:21:31;;;;;;;10.16;4.71;;;;;;;;;;363964;146;857198;-59
2021/08/08 01:22:33;;;;;;;11.11;4.91;;;;;;;;;;366357;145;857250;-59
2021/08/08 01:23:35;;;;;;;5.89;4.39;;;;;;;;;;366047;145;857243;-59
2021/08/08 01:24:37;;;;;;;5.35;4.16;;;;;;;;;;365191;145;864752;-59
2021/08/08 01:25:39;;;;;;;7.21;4.61;;;;;;;;;;363787;146;858952;-60
2021/08/08 01:26:42;;;;;;;7.11;4.63;;;;;;;;;;365328;145;864949;-60
2021/08/08 01:27:43;;;;;;;7.72;4.45;;;;;;;;;;365229;147;860491;-60
2021/08/08 01:28:45;;;;;;;7.83;4.33;;;;;;;;;;365048;146;859281;-59
2021/08/08 01:29:46;;;;;;;5.91;4.60;;;;;;;;;;364528;145;858369;-60
2021/08/08 01:30:48;;;;;;;5.45;4.35;;;;;;;;;;365331;145;857347;-59
2021/08/08 01:31:50;;;;;;;5.79;4.43;;;;;;;;;;362170;147;857131;-59
2021/08/08 01:32:52;;;;;;;6.14;4.26;;;;;;;;;;365399;145;857634;-59
2021/08/08 01:33:54;;;;;;;8.94;4.39;;;;;;;;;;366257;146;857213;-59
2021/08/08 01:34:55;;;;;;;15.38;4.76;;;;;;;;;;364848;147;859159;-59
2021/08/08 01:35:57;;;;;;;11.81;4.80;;;;;;;;;;363791;145;857262;-59
2021/08/08 01:36:58;;;;;;;7.26;4.98;;;;;;;;;;365560;145;860701;-60
2021/08/08 01:38:00;;;;;;;10.56;4.79;;;;;;;;;;361460;147;866001;-60
2021/08/08 01:39:03;;;;;;;6.16;4.67;;;;;;;;;;361776;145;859601;-59
2021/08/08 01:40:22;;;;;;;5.52;4.69;;;;;;;;;;366322;145;866677;-59
2021/08/08 01:41:23;;;;;;;5.33;4.39;;;;;;;;;;364986;146;864724;-59
2021/08/08 01:42:25;;;;;;;6.91;4.66;;;;;;;;;;367388;145;857095;-60
2021/08/08 01:43:27;;;;;;;5.93;4.59;;;;;;;;;;367711;145;857626;-59
2021/08/08 01:44:30;;;;;;;6.10;4.58;;;;;;;;;;364826;146;859025;-59
2021/08/08 01:45:33;;;;;;;6.50;4.38;;;;;;;;;;363820;147;858589;-59
2021/08/08 01:46:35;;;;;;;9.88;4.63;;;;;;;;;;363017;145;857722;-60
2021/08/08 01:47:37;;;;;;;24.28;5.41;;;;;;;;;;357165;150;857153;-59
2021/08/08 01:48:39;;;;;;;6.83;5.41;;;;;;;;;;356075;149;857136;-59
2021/08/08 01:49:43;;;;;;;6.49;4.79;;;;;;;;;;355495;150;857776;-60
2021/08/08 01:50:45;;;;;;;5.11;4.26;;;;;;;;;;356939;148;858842;-59
2021/08/08 01:51:47;;;;;;;5.30;4.49;;;;;;;;;;358339;149;857833;-60
2021/08/08 01:52:48;;;;;;;5.86;3.69;;;;;;;;;;359341;150;860975;-59
2021/08/08 01:53:50;;;;;;;4.16;3.42;;;;;;;;;;354380;149;865033;-59
2021/08/08 01:54:52;;;;;;;6.15;3.54;;;;;;;;;;358737;149;859116;-59
2021/08/08 01:55:54;;;;;;;4.31;3.05;;;;;;;;;;356072;149;858189;-59
2021/08/08 01:56:56;;;;;;;5.29;3.16;;;;;;;;;;359396;150;865932;-59
2021/08/08 01:57:58;;;;;;;4.85;3.39;;;;;;;;;;359451;150;857283;-60
2021/08/08 01:59:00;;;;;;;4.65;3.53;;;;;;;;;;359299;149;857282;-60
2021/08/08 02:00:05;;;;;;;5.41;3.55;;;;;;;;;;359368;149;857187;-59
2021/08/08 02:01:07;;;;;;;4.00;3.31;;;;;;;;;;358853;150;860277;-59
2021/08/08 02:02:12;;;;;;;4.86;3.09;;;;;;;;;;358231;150;858909;-59
2021/08/08 02:03:14;;;;;;;4.88;3.16;;;;;;;;;;358987;149;857332;-60
2021/08/08 02:04:24;;;;;;;3.53;3.08;;;;;;;;;;355405;149;857620;-59
2021/08/08 02:05:26;;;;;;;5.75;3.14;;;;;;;;;;356983;149;857529;-59
2021/08/08 02:06:29;;;;;;;4.93;3.64;;;;;;;;;;357275;148;866962;-60
2021/08/08 02:07:30;;;;;;;4.51;2.96;;;;;;;;;;359131;149;857181;-59
2021/08/08 02:08:32;;;;;;;6.27;3.31;;;;;;;;;;358965;150;857626;-59
2021/08/08 02:09:34;;;;;;;3.96;3.19;;;;;;;;;;358848;149;867013;-59
2021/08/08 02:10:36;;;;;;;4.69;3.53;;;;;;;;;;358893;149;857214;-59
2021/08/08 02:11:37;;;;;;;4.06;3.31;;;;;;;;;;358404;150;857426;-60
2021/08/08 02:12:39;;;;;;;8.32;4.19;;;;;;;;;;359591;149;860007;-59
2021/08/08 02:13:40;;;;;;;5.33;3.77;;;;;;;;;;359137;149;857906;-59
2021/08/08 02:14:42;;;;;;;7.54;4.34;;;;;;;;;;356277;150;857697;-59
2021/08/08 02:15:44;;;;;;;6.56;3.94;;;;;;;;;;358543;149;857415;-59
2021/08/08 02:16:47;;;;;;;6.49;3.91;;;;;;;;;;358559;148;857392;-59
2021/08/08 02:17:49;;;;;;;5.03;3.82;;;;;;;;;;357422;149;857794;-59
2021/08/08 02:18:50;;;;;;;5.74;3.81;;;;;;;;;;346008;153;857146;-59
2021/08/08 02:19:52;;;;;;;4.88;3.87;;;;;;;;;;346850;154;864809;-59
2021/08/08 02:20:54;;;;;;;5.68;4.09;;;;;;;;;;344861;153;857171;-59
2021/08/08 02:21:56;;;;;;;7.21;4.01;;;;;;;;;;344400;153;859370;-59
2021/08/08 02:22:57;;;;;;;8.01;4.31;;;;;;;;;;345919;153;859085;-60
2021/08/08 02:23:59;;;;;;;5.96;3.91;;;;;;;;;;348829;152;858321;-59
2021/08/08 02:25:00;;;;;;;4.90;4.24;;;;;;;;;;348668;152;857871;-59
2021/08/08 02:26:02;;;;;;;7.37;4.48;;;;;;;;;;348161;154;864866;-59
2021/08/08 02:27:04;;;;;;;6.24;3.86;;;;;;;;;;347568;152;864889;-59
2021/08/08 02:28:08;;;;;;;6.16;3.89;;;;;;;;;;347805;152;857799;-59
2021/08/08 02:29:09;;;;;;;4.21;3.82;;;;;;;;;;347114;153;863900;-59
2021/08/08 02:30:13;;;;;;;5.89;3.99;;;;;;;;;;348530;152;861755;-59
2021/08/08 02:31:16;;;;;;;5.62;4.24;;;;;;;;;;347125;152;858085;-60
2021/08/08 02:32:17;;;;;;;6.34;4.10;;;;;;;;;;348579;151;865669;-60
2021/08/08 02:33:19;;;;;;;5.56;3.98;;;;;;;;;;346454;154;859247;-60
2021/08/08 02:34:20;;;;;;;5.24;4.00;;;;;;;;;;346678;154;857225;-60
2021/08/08 02:35:22;;;;;;;8.44;4.46;;;;;;;;;;345532;152;857383;-60
2021/08/08 02:36:25;;;;;;;4.93;3.54;;;;;;;;;;347871;151;864929;-60
2021/08/08 02:37:26;;;;;;;6.76;4.01;;;;;;;;;;344137;154;857296;-59
2021/08/08 02:38:28;;;;;;;6.28;4.08;;;;;;;;;;349122;152;858095;-59
2021/08/08 02:39:29;;;;;;;5.44;3.76;;;;;;;;;;347033;151;857267;-59
2021/08/08 02:40:32;;;;;;;6.83;4.13;;;;;;;;;;339959;156;864798;-59
2021/08/08 02:41:33;;;;;;;8.08;4.12;;;;;;;;;;349209;152;857694;-59
2021/08/08 02:42:35;;;;;;;9.23;3.81;;;;;;;;;;349636;152;857321;-59
2021/08/08 02:43:37;;;;;;;4.54;3.99;;;;;;;;;;350145;152;857251;-58
2021/08/08 02:44:38;;;;;;;6.27;3.83;;;;;;;;;;349133;152;864764;-59
2021/08/08 02:45:40;;;;;;;8.20;3.71;;;;;;;;;;348907;151;857882;-58
2021/08/08 02:46:43;;;;;;;5.61;4.01;;;;;;;;;;350632;151;857438;-59
2021/08/08 02:47:45;;;;;;;5.79;4.14;;;;;;;;;;352509;148;856479;-59
2021/08/08 02:48:46;;;;;;;6.03;3.73;;;;;;;;;;350356;152;856377;-59
2021/08/08 02:49:48;;;;;;;5.36;3.82;;;;;;;;;;351085;151;857280;-59
2021/08/08 02:50:51;;;;;;;7.16;4.03;;;;;;;;;;350784;149;857419;-59
2021/08/08 02:51:54;;;;;;;6.14;4.05;;;;;;;;;;352952;149;857706;-59
2021/08/08 02:52:56;;;;;;;8.74;3.94;;;;;;;;;;354133;149;865686;-59
2021/08/08 02:53:57;;;;;;;5.34;4.11;;;;;;;;;;345220;152;857201;-59
2021/08/08 02:54:59;;;;;;;10.31;4.42;;;;;;;;;;343298;152;864902;-60
2021/08/08 02:56:01;;;;;;;10.16;4.05;;;;;;;;;;348213;152;857315;-59
2021/08/08 02:57:02;;;;;;;7.61;4.31;;;;;;;;;;349788;151;857270;-60
2021/08/08 02:58:04;;;;;;;4.89;4.00;;;;;;;;;;351409;149;857153;-60
2021/08/08 02:59:05;;;;;;;6.29;4.28;;;;;;;;;;352388;152;866135;-60
2021/08/08 03:00:08;;;;;;;5.65;4.23;;;;;;;;;;354292;149;864872;-59
2021/08/08 03:01:11;;;;;;;6.35;4.64;;;;;;;;;;345486;154;857267;-59
2021/08/08 03:02:12;;;;;;;5.45;3.94;;;;;;;;;;351648;151;858976;-60
2021/08/08 03:03:14;;;;;;;10.92;5.27;;;;;;;;;;353271;151;865706;-60
2021/08/08 03:04:16;;;;;;;5.79;3.99;;;;;;;;;;346571;151;857245;-60
2021/08/08 03:05:17;;;;;;;6.98;4.32;;;;;;;;;;347544;151;857306;-60
2021/08/08 03:06:19;;;;;;;10.16;4.63;;;;;;;;;;346338;151;857214;-60
2021/08/08 03:07:21;;;;;;;7.71;4.56;;;;;;;;;;347676;151;857261;-59
2021/08/08 03:08:23;;;;;;;8.07;4.89;;;;;;;;;;348097;151;866280;-59
2021/08/08 03:09:24;;;;;;;6.60;4.40;;;;;;;;;;346488;153;859849;-61
2021/08/08 03:10:27;;;;;;;9.77;4.62;;;;;;;;;;344439;154;857208;-62
2021/08/08 03:11:29;;;;;;;8.38;4.68;;;;;;;;;;347391;151;866712;-62
2021/08/08 03:12:30;;;;;;;10.14;5.06;;;;;;;;;;346181;151;857191;-62
2021/08/08 03:13:32;;;;;;;8.95;5.55;;;;;;;;;;348179;153;857659;-63
2021/08/08 03:14:33;;;;;;;8.71;4.36;;;;;;;;;;352349;151;859108;-62
2021/08/08 03:15:35;;;;;;;6.31;4.47;;;;;;;;;;346380;153;857256;-62
2021/08/08 03:16:37;;;;;;;7.37;4.85;;;;;;;;;;347261;151;857234;-63
2021/08/08 03:17:39;;;;;;;6.76;4.57;;;;;;;;;;348394;151;857344;-63
2021/08/08 03:18:40;;;;;;;6.06;4.39;;;;;;;;;;350499;151;857305;-63
2021/08/08 03:19:42;;;;;;;5.61;4.13;;;;;;;;;;347175;153;857460;-64
2021/08/08 03:20:45;;;;;;;8.90;4.83;;;;;;;;;;346734;153;859121;-64
2021/08/08 03:21:47;;;;;;;7.08;5.11;;;;;;;;;;347414;154;856419;-63
2021/08/08 03:22:48;;;;;;;7.21;4.14;;;;;;;;;;346557;153;865560;-62
2021/08/08 03:23:50;;;;;;;9.70;4.48;;;;;;;;;;347352;151;858695;-62
2021/08/08 03:24:51;;;;;;;7.24;4.34;;;;;;;;;;346884;153;858862;-63
2021/08/08 03:25:54;;;;;;;9.41;4.75;;;;;;;;;;344925;154;858476;-65
2021/08/08 03:26:55;;;;;;;5.75;4.26;;;;;;;;;;347748;153;859954;-64
2021/08/08 03:27:57;;;;;;;7.09;4.44;;;;;;;;;;345843;153;858919;-64
2021/08/08 03:28:58;;;;;;;9.30;4.36;;;;;;;;;;347158;151;859349;-64
2021/08/08 03:30:00;;;;;;;7.12;4.24;;;;;;;;;;346631;151;864952;-63
2021/08/08 03:31:02;;;;;;;5.88;4.17;;;;;;;;;;347082;151;857190;-62
2021/08/08 03:32:04;;;;;;;5.66;4.27;;;;;;;;;;347690;151;857748;-63
2021/08/08 03:33:05;;;;;;;5.72;4.03;;;;;;;;;;347327;154;857751;-64
2021/08/08 03:34:07;;;;;;;5.97;4.39;;;;;;;;;;348813;151;858619;-65
2021/08/08 03:35:09;;;;;;;5.62;4.06;;;;;;;;;;346940;151;857303;-64
2021/08/08 03:36:11;;;;;;;8.85;3.87;;;;;;;;;;347041;151;857200;-63
2021/08/08 03:37:13;;;;;;;6.82;3.77;;;;;;;;;;346350;151;858909;-64
2021/08/08 03:38:14;;;;;;;5.18;4.11;;;;;;;;;;346608;153;859525;-64
2021/08/08 03:39:17;;;;;;;4.71;3.61;;;;;;;;;;348048;151;866351;-63
2021/08/08 03:40:20;;;;;;;7.24;3.60;;;;;;;;;;347061;152;858831;-62
2021/08/08 03:41:21;;;;;;;6.14;3.41;;;;;;;;;;346669;154;864931;-62
2021/08/08 03:42:23;;;;;;;4.58;3.48;;;;;;;;;;350018;151;866437;-62
2021/08/08 03:43:24;;;;;;;8.19;3.54;;;;;;;;;;353555;151;858967;-65
2021/08/08 03:44:26;;;;;;;5.49;3.61;;;;;;;;;;351792;152;857333;-64
2021/08/08 03:45:27;;;;;;;5.92;3.66;;;;;;;;;;349838;151;859908;-65
2021/08/08 03:46:30;;;;;;;5.60;3.57;;;;;;;;;;346576;151;858995;-63
2021/08/08 03:47:34;;;;;;;6.28;3.62;;;;;;;;;;344930;151;859566;-63
2021/08/08 03:48:36;;;;;;;8.65;3.73;;;;;;;;;;351082;150;857299;-64
2021/08/08 03:49:37;;;;;;;6.69;3.83;;;;;;;;;;364868;146;857222;-64
2021/08/08 03:50:39;;;;;;;5.16;3.62;;;;;;;;;;365624;146;864930;-64
2021/08/08 03:51:41;;;;;;;4.29;3.12;;;;;;;;;;363823;146;857311;-67
2021/08/08 03:52:42;;;;;;;4.46;3.85;;;;;;;;;;362721;146;865808;-62
2021/08/08 03:53:44;;;;;;;5.63;3.92;;;;;;;;;;362869;145;859188;-62
2021/08/08 03:54:46;;;;;;;7.49;3.69;;;;;;;;;;363144;145;859882;-63
2021/08/08 03:55:47;;;;;;;6.46;3.81;;;;;;;;;;363936;146;856490;-66
2021/08/08 03:56:50;;;;;;;4.84;3.94;;;;;;;;;;363364;147;857726;-63
2021/08/08 03:57:53;;;;;;;5.08;3.56;;;;;;;;;;364307;146;858443;-67
2021/08/08 03:58:55;;;;;;;4.93;3.37;;;;;;;;;;366299;146;857230;-67
2021/08/08 03:59:56;;;;;;;7.29;4.09;;;;;;;;;;365580;146;858456;-66
2021/08/08 04:00:59;;;;;;;4.76;3.79;;;;;;;;;;363240;146;857205;-64
2021/08/08 04:02:01;;;;;;;5.53;3.81;;;;;;;;;;364146;147;864902;-67
2021/08/08 04:03:03;;;;;;;7.06;3.82;;;;;;;;;;365626;146;864774;-66
2021/08/08 04:04:04;;;;;;;6.06;4.06;;;;;;;;;;364059;147;857206;-64
2021/08/08 04:05:07;;;;;;;6.03;4.48;;;;;;;;;;363647;146;865459;-64
2021/08/08 04:06:09;;;;;;;5.37;4.12;;;;;;;;;;361679;146;857749;-63
2021/08/08 04:07:11;;;;;;;5.15;4.08;;;;;;;;;;362757;146;857172;-63
2021/08/08 04:08:12;;;;;;;6.87;4.21;;;;;;;;;;362720;146;861106;-62
2021/08/08 04:09:14;;;;;;;5.79;4.26;;;;;;;;;;363375;146;865587;-66
2021/08/08 04:10:16;;;;;;;5.19;3.98;;;;;;;;;;365846;147;864803;-65
2021/08/08 04:11:18;;;;;;;6.34;4.34;;;;;;;;;;363675;146;857267;-64
2021/08/08 04:12:19;;;;;;;7.72;4.15;;;;;;;;;;364489;146;857257;-64
2021/08/08 04:13:21;;;;;;;7.70;3.85;;;;;;;;;;359206;150;857386;-64
2021/08/08 04:14:22;;;;;;;5.76;4.35;;;;;;;;;;363741;146;857297;-64
2021/08/08 04:15:24;;;;;;;7.02;4.60;;;;;;;;;;364482;147;859037;-64
2021/08/08 04:16:26;;;;;;;4.67;3.92;;;;;;;;;;364120;146;859395;-64
2021/08/08 04:17:28;;;;;;;4.58;4.01;;;;;;;;;;360659;147;859097;-62
2021/08/08 04:18:30;;;;;;;6.24;4.29;;;;;;;;;;365814;147;857174;-63
2021/08/08 04:19:32;;;;;;;5.34;4.04;;;;;;;;;;363831;146;864890;-63
2021/08/08 04:20:34;;;;;;;5.93;4.13;;;;;;;;;;362364;147;864746;-63
2021/08/08 04:21:35;;;;;;;5.76;3.71;;;;;;;;;;365094;147;857089;-64
2021/08/08 04:22:37;;;;;;;5.32;3.92;;;;;;;;;;363504;147;857228;-62
2021/08/08 04:23:38;;;;;;;5.66;3.96;;;;;;;;;;361524;147;857256;-62
2021/08/08 04:24:40;;;;;;;6.19;4.09;;;;;;;;;;360781;147;859477;-63
2021/08/08 04:25:41;;;;;;;6.74;3.91;;;;;;;;;;364636;147;857383;-62
2021/08/08 04:26:45;;;;;;;6.58;4.16;;;;;;;;;;363859;147;857356;-61
2021/08/08 04:27:46;;;;;;;5.74;4.25;;;;;;;;;;364188;147;856425;-62
2021/08/08 04:28:48;;;;;;;5.15;4.02;;;;;;;;;;366498;146;857859;-62
2021/08/08 04:29:49;;;;;;;6.51;4.37;;;;;;;;;;364940;147;858266;-62
2021/08/08 04:30:52;;;;;;;4.96;3.63;;;;;;;;;;365344;147;860057;-63
2021/08/08 04:31:54;;;;;;;7.12;4.36;;;;;;;;;;365271;146;858054;-62
2021/08/08 04:32:55;;;;;;;7.56;4.21;;;;;;;;;;362248;146;860250;-62
2021/08/08 04:33:57;;;;;;;8.68;3.88;;;;;;;;;;364060;146;858475;-64
2021/08/08 04:34:59;;;;;;;5.78;4.79;;;;;;;;;;366230;147;865858;-64
2021/08/08 04:36:00;;;;;;;5.34;3.97;;;;;;;;;;364688;147;857326;-65
2021/08/08 04:37:02;;;;;;;6.34;4.16;;;;;;;;;;363766;146;857308;-64
2021/08/08 04:38:04;;;;;;;6.35;4.17;;;;;;;;;;364583;146;857235;-65
2021/08/08 04:39:06;;;;;;;7.91;4.85;;;;;;;;;;365980;147;857273;-65
2021/08/08 04:40:09;;;;;;;6.65;4.52;;;;;;;;;;363652;147;857453;-64
2021/08/08 04:41:11;;;;;;;8.54;4.59;;;;;;;;;;363654;146;860100;-64
2021/08/08 04:42:12;;;;;;;5.36;4.35;;;;;;;;;;358511;150;858680;-64
2021/08/08 04:43:14;;;;;;;4.89;4.17;;;;;;;;;;358474;150;857214;-64
2021/08/08 04:44:15;;;;;;;5.24;3.96;;;;;;;;;;364757;146;857257;-62
2021/08/08 04:45:18;;;;;;;5.30;4.16;;;;;;;;;;364513;146;857256;-65
2021/08/08 04:46:21;;;;;;;5.78;4.29;;;;;;;;;;366154;146;857250;-65
2021/08/08 05:05:58;;;;;;;5.52;3.41;;;;;;;17.41;66.40;99828.34;373144;142;875249;-65
2021/08/08 05:07:01;;;;;;;4.63;3.39;;;;;;;17.25;65.83;99828.06;362380;144;858175;-64
2021/08/08 05:08:03;;;;;;;4.98;3.71;;;;;;;17.22;66.38;99831.66;364064;144;859859;-63
2021/08/08 05:09:05;;;;;;;4.34;2.99;;;;;;;17.23;66.57;99836.82;363759;145;859485;-65
2021/08/08 05:10:09;;;;;;;5.43;3.73;;;;;;;17.28;66.23;99831.44;361915;146;857316;-67
2021/08/08 05:11:18;;;;;;;4.84;3.40;;;;;;;17.32;66.68;99834.77;361153;145;859651;-63
2021/08/08 05:12:20;;;;;;;4.97;3.42;;;;;;;;;;361803;147;857175;-61
2021/08/08 05:13:21;;;;;;;5.04;3.50;;;;;;;;;;361623;145;858118;-63
2021/08/08 05:14:23;;;;;;;5.15;3.60;;;;;;;;;;363240;144;866562;-67
2021/08/08 05:15:24;;;;;;;6.65;3.09;;;;;;;;;;365199;146;858572;-65
2021/08/08 05:16:26;;;;;;;6.88;3.33;;;;;;;;;;363553;144;859145;-67
2021/08/08 05:17:28;;;;;;;4.64;3.41;;;;;;;;;;361772;145;859549;-64
2021/08/08 05:18:29;;;;;;;5.01;3.74;;;;;;;;;;364976;145;857173;-62
2021/08/08 05:19:31;;;;;;;4.48;3.31;;;;;;;;;;365925;147;857185;-64
2021/08/08 05:20:33;;;;;;;5.53;3.09;;;;;;;;;;363204;146;857277;-65
2021/08/08 05:21:34;;;;;;;5.96;2.81;;;;;;;;;;361678;145;857313;-66
2021/08/08 05:22:36;;;;;;;4.79;2.78;;;;;;;;;;364182;145;859516;-65
2021/08/08 05:23:37;;;;;;;4.10;2.46;;;;;;;;;;360175;147;858260;-65
2021/08/08 05:24:39;;;;;;;6.64;2.87;;;;;;;;;;359831;147;857932;-66
2021/08/08 05:25:41;;;;;;;5.64;2.81;;;;;;;;;;359833;147;857255;-63
2021/08/08 05:26:44;;;;;;;3.59;2.69;;;;;;;;;;359165;150;857366;-64
2021/08/08 05:27:46;;;;;;;5.64;2.73;;;;;;;;;;359302;149;857970;-64
2021/08/08 05:28:47;;;;;;;5.15;2.59;;;;;;;;;;358473;147;858932;-64
2021/08/08 05:29:49;;;;;;;5.17;2.84;;;;;;;;;;357837;147;857385;-64
2021/08/08 05:30:52;;;;;;;4.31;2.51;;;;;;;;;;354752;147;859029;-64
2021/08/08 05:31:53;;;;;;;3.48;2.29;;;;;;;;;;360438;148;865286;-63
2021/08/08 05:32:55;;;;;;;4.18;2.35;;;;;;;;;;357511;147;860572;-63
2021/08/08 05:33:57;;;;;;;3.39;2.56;;;;;;;;;;358235;147;866216;-63
2021/08/08 05:34:58;;;;;;;4.72;2.43;;;;;;;;;;359397;149;858678;-63
2021/08/08 05:36:00;;;;;;;2.63;1.70;;;;;;;;;;357759;147;866547;-63
2021/08/08 05:37:02;;;;;;;3.22;1.89;;;;;;;;;;358814;147;865571;-61
2021/08/08 05:38:03;;;;;;;2.90;2.18;;;;;;;;;;357207;147;857830;-63
2021/08/08 05:39:05;;;;;;;3.16;2.19;;;;;;;;;;361346;147;864613;-63
2021/08/08 05:40:07;;;;;;;2.39;1.81;;;;;;;;;;357376;147;858162;-63
2021/08/08 05:41:09;;;;;;;2.59;1.85;;;;;;;;;;355699;148;858151;-63
2021/08/08 05:42:11;;;;;;;2.43;1.80;;;;;;;;;;359213;149;858639;-64
2021/08/08 05:43:12;;;;;;;2.04;1.70;;;;;;;;;;357564;147;856405;-64
2021/08/08 05:44:14;;;;;;;2.39;1.51;;;;;;;;;;357708;147;856256;-64
2021/08/08 05:45:17;;;;;;;3.65;1.64;;;;;;;;;;356365;151;856193;-63
2021/08/08 05:46:19;;;;;;;2.38;1.65;;;;;;;;;;356069;151;857148;-63
2021/08/08 05:47:21;;;;;;;4.20;1.72;;;;;;;;;;357254;147;858658;-63
2021/08/08 05:48:23;;;;;;;4.86;1.63;;;;;;;;;;356913;147;857320;-64
2021/08/08 05:49:24;;;;;;;3.59;1.75;;;;;;;;;;357941;150;857224;-63
2021/08/08 05:50:26;;;;;;;4.27;1.47;;;;;;;;;;357805;148;857268;-63
2021/08/08 05:51:28;;;;;;;2.76;1.82;;;;;;;;;;358192;147;857258;-63
2021/08/08 05:52:29;;;;;;;3.01;1.77;;;;;;;;;;357375;147;857201;-63
2021/08/08 05:53:31;;;;;;;4.45;1.64;;;;;;;;;;357888;150;866470;-63
2021/08/08 05:54:32;;;;;;;3.09;1.81;;;;;;;;;;356589;148;859035;-63
2021/08/08 05:55:35;;;;;;;3.68;1.78;;;;;;;;;;359129;147;859014;-63
2021/08/08 05:56:37;;;;;;;3.34;1.43;;;;;;;;;;356908;150;858123;-63
2021/08/08 05:57:39;;;;;;;4.80;1.53;;;;;;;;;;357410;148;857241;-63
2021/08/08 05:58:40;;;;;;;1.82;1.50;;;;;;;;;;359007;148;858246;-63
2021/08/08 05:59:42;;;;;;;2.26;1.53;;;;;;;;;;357936;147;857539;-63
2021/08/08 06:00:44;;;;;;;2.97;1.40;;;;;;;;;;358592;147;857418;-62
2021/08/08 06:01:45;;;;;;;7.38;1.59;;;;;;;;;;355735;147;865006;-62
2021/08/08 06:02:47;;;;;;;2.36;1.25;;;;;;;;;;357797;147;857432;-62
2021/08/08 06:03:49;;;;;;;2.38;1.68;;;;;;;;;;359204;150;856857;-61
2021/08/08 06:04:50;;;;;;;2.34;1.34;;;;;;;;;;356900;148;857228;-61
2021/08/08 06:05:52;;;;;;;4.34;1.61;;;;;;;;;;357046;148;857174;-63
2021/08/08 06:06:56;;;;;;;2.86;1.61;;;;;;;;;;354872;149;857204;-63
2021/08/08 06:07:58;;;;;;;2.53;1.43;;;;;;;;;;351627;152;859123;-63
2021/08/08 06:09:00;;;;;;;2.47;1.44;;;;;;;;;;351887;148;859190;-63
2021/08/08 06:10:02;;;;;;;1.73;1.40;;;;;;;;;;354886;149;857410;-63
2021/08/08 06:11:03;;;;;;;2.88;1.52;;;;;;;;;;355986;149;857240;-63
2021/08/08 06:12:07;;;;;;;2.65;1.43;;;;;;;;;;354245;151;857265;-63
2021/08/08 06:13:09;;;;;;;3.18;1.41;;;;;;;;;;354798;148;858722;-63
2021/08/08 06:14:11;;;;;;;2.30;1.31;;;;;;;;;;354104;149;858926;-63
2021/08/08 06:15:12;;;;;;;2.76;1.51;;;;;;;;;;355119;151;857716;-63
2021/08/08 06:16:14;;;;;;;2.01;1.32;;;;;;;;;;351115;148;858677;-63
2021/08/08 06:17:16;;;;;;;3.68;1.62;;;;;;;;;;355652;149;858747;-63
2021/08/08 06:18:17;;;;;;;7.00;1.57;;;;;;;;;;352689;149;857369;-64
2021/08/08 06:19:19;;;;;;;2.36;1.52;;;;;;;;;;353046;152;859196;-63
2021/08/08 06:20:22;;;;;;;2.52;1.40;;;;;;;;;;356486;148;858481;-63
2021/08/08 06:21:24;;;;;;;1.79;1.41;;;;;;;;;;352950;149;859029;-63
2021/08/08 06:22:25;;;;;;;1.79;1.34;;;;;;;;;;355448;151;864933;-63
2021/08/08 06:23:27;;;;;;;2.56;1.45;;;;;;;;;;359743;148;857391;-64